Time;durP1;ratioP1;P1;durP2;ratioP2;P2;SDS_P1;SDS_P2;PMS_P1;PMS_P2;Temp;Humidity;BMP_temperature;BMP_pressure;BME280_temperature;BME280_humidity;BME280_pressure;Samples;Min_cycle;Max_cycle;Signal;HPM_P1;HPM_P2
2022/11/19 00:00:21;;;;;;;3.03;2.83;;;;;;;;;;5067754;28;20052;-57
2022/11/19 00:02:49;;;;;;;4.18;3.17;;;;;;;;;;5068712;28;20055;-57
2022/11/19 00:05:15;;;;;;;3.33;2.83;;;;;;;;;;5067977;28;20040;-57
2022/11/19 00:07:41;;;;;;;3.22;2.90;;;;;;;;;;5068513;28;20049;-57
2022/11/19 00:10:07;;;;;;;3.30;3.00;;;;;;;;;;5068394;28;20059;-57
2022/11/19 00:15:17;;;;;;;3.95;3.55;;;;;;;;;;5067597;28;20052;-58
2022/11/19 00:17:43;;;;;;;3.88;2.90;;;;;;;;;;5067910;28;20045;-57
2022/11/19 00:20:10;;;;;;;4.63;3.30;;;;;;;;;;5067990;28;20041;-58
2022/11/19 00:22:36;;;;;;;3.35;2.63;;;;;;;;;;5067736;28;20081;-57
2022/11/19 00:25:02;;;;;;;3.42;3.05;;;;;;;;;;5067753;28;20508;-57
2022/11/19 00:27:28;;;;;;;4.90;3.95;;;;;;;;;;5065073;28;20052;-57
2022/11/19 00:29:54;;;;;;;3.22;2.92;;;;;;;;;;5067468;28;20073;-57
2022/11/19 00:32:20;;;;;;;5.07;2.90;;;;;;;;;;5068833;28;20040;-57
2022/11/19 00:34:46;;;;;;;3.17;2.88;;;;;;;;;;5067608;28;20044;-57
2022/11/19 00:37:12;;;;;;;3.47;2.78;;;;;;;;;;5068173;28;20078;-58
2022/11/19 00:39:38;;;;;;;3.58;2.60;;;;;;;;;;5067485;28;20041;-57
2022/11/19 00:42:04;;;;;;;3.90;3.42;;;;;;;;;;5067394;28;20052;-58
2022/11/19 00:44:30;;;;;;;3.97;3.45;;;;;;;;;;5067860;28;20045;-57
2022/11/19 00:46:56;;;;;;;3.92;3.22;;;;;;;;;;5066671;28;20457;-57
2022/11/19 00:49:22;;;;;;;3.10;2.70;;;;;;;;;;5100288;28;20056;-57
2022/11/19 00:51:48;;;;;;;4.00;3.20;;;;;;;;;;5067998;28;20052;-57
2022/11/19 00:54:14;;;;;;;3.55;2.97;;;;;;;;;;5066819;28;20040;-57
2022/11/19 00:56:40;;;;;;;4.22;3.20;;;;;;;;;;5067197;28;20517;-57
2022/11/19 00:59:06;;;;;;;5.45;2.92;;;;;;;;;;5067475;28;20051;-60
2022/11/19 01:01:32;;;;;;;3.60;3.30;;;;;;;;;;5066301;28;20048;-60
2022/11/19 01:03:58;;;;;;;4.40;3.15;;;;;;;;;;5066749;28;20549;-60
2022/11/19 01:06:25;;;;;;;3.40;2.80;;;;;;;;;;5067175;28;20127;-60
2022/11/19 01:08:51;;;;;;;4.78;3.97;;;;;;;;;;5066264;28;20049;-58
2022/11/19 01:11:19;;;;;;;3.35;2.95;;;;;;;;;;5066258;28;20048;-57
2022/11/19 01:13:46;;;;;;;5.95;4.03;;;;;;;;;;5067261;28;20044;-57
2022/11/19 01:16:13;;;;;;;5.13;3.33;;;;;;;;;;5066840;28;20045;-57
2022/11/19 01:18:40;;;;;;;4.20;3.17;;;;;;;;;;5066932;28;20044;-57
2022/11/19 01:21:06;;;;;;;5.03;3.35;;;;;;;;;;5067154;28;20052;-57
2022/11/19 01:23:33;;;;;;;4.28;3.80;;;;;;;;;;5066275;28;20054;-57
2022/11/19 01:25:59;;;;;;;3.40;3.00;;;;;;;;;;5067320;28;20439;-57
2022/11/19 01:28:25;;;;;;;4.28;3.22;;;;;;;;;;5067293;28;20411;-57
2022/11/19 01:30:51;;;;;;;3.85;3.45;;;;;;;;;;5066472;28;20056;-57
2022/11/19 01:33:18;;;;;;;4.35;3.38;;;;;;;;;;5067655;28;20052;-57
2022/11/19 01:35:44;;;;;;;3.90;3.50;;;;;;;;;;5066893;28;20048;-57
2022/11/19 01:38:10;;;;;;;3.95;3.45;;;;;;;;;;5066185;28;20344;-57
2022/11/19 01:40:43;;;;;;;3.95;3.45;;;;;;;;;;5066358;28;20068;-57
2022/11/19 01:43:10;;;;;;;4.40;3.45;;;;;;;;;;5066322;28;20106;-57
2022/11/19 01:45:41;;;;;;;4.32;3.40;;;;;;;;;;5066066;28;20041;-57
2022/11/19 01:48:22;;;;;;;3.95;3.50;;;;;;;;;;5065965;28;20044;-57
2022/11/19 01:50:56;;;;;;;3.80;3.50;;;;;;;;;;5069400;28;20094;-57
2022/11/19 01:53:23;;;;;;;4.72;3.40;;;;;;;;;;5065234;28;20048;-57
2022/11/19 01:55:50;;;;;;;4.97;3.90;;;;;;;;;;5065470;28;20070;-57
2022/11/19 01:58:20;;;;;;;4.22;3.65;;;;;;;;;;5066087;28;20040;-57
2022/11/19 02:00:46;;;;;;;4.78;3.90;;;;;;;;;;5066259;28;20848;-57
2022/11/19 02:03:13;;;;;;;4.18;3.75;;;;;;;;;;5066079;28;20055;-57
2022/11/19 02:05:41;;;;;;;4.22;3.45;;;;;;;;;;5065170;28;20049;-57
2022/11/19 02:08:08;;;;;;;4.47;3.67;;;;;;;;;;5065864;28;20052;-57
2022/11/19 02:10:56;;;;;;;6.05;3.85;;;;;;;;;;5065298;28;20176;-57
2022/11/19 02:13:29;;;;;;;5.07;4.32;;;;;;;;;;5064532;28;20051;-57
2022/11/19 02:16:02;;;;;;;5.10;3.75;;;;;;;;;;5065820;28;20102;-57
2022/11/19 02:18:39;;;;;;;5.18;4.07;;;;;;;;;;5065578;28;20045;-57
2022/11/19 02:21:17;;;;;;;5.80;4.85;;;;;;;;;;5066023;28;20380;-57
2022/11/19 02:23:43;;;;;;;5.38;4.30;;;;;;;;;;5065394;28;20056;-57
2022/11/19 02:26:38;;;;;;;4.35;3.70;;;;;;;;;;5065328;28;20044;-57
2022/11/19 02:29:24;;;;;;;4.75;3.97;;;;;;;;;;5028074;28;20058;-57
2022/11/19 02:31:50;;;;;;;4.50;3.78;;;;;;;;;;5065614;28;20053;-57
2022/11/19 02:34:21;;;;;;;5.38;4.32;;;;;;;;;;5065125;28;20469;-57
2022/11/19 02:36:53;;;;;;;4.63;3.78;;;;;;;;;;5065537;28;20706;-57
2022/11/19 02:39:35;;;;;;;6.97;4.32;;;;;;;;;;5064594;28;20040;-57
2022/11/19 02:42:19;;;;;;;5.47;4.32;;;;;;;;;;5065302;28;20506;-58
2022/11/19 02:45:01;;;;;;;3.78;3.33;;;;;;;;;;5064908;28;20036;-57
2022/11/19 02:47:27;;;;;;;5.43;3.90;;;;;;;;;;5064469;28;20055;-58
2022/11/19 02:49:56;;;;;;;4.78;4.30;;;;;;;;;;5065137;28;20645;-58
2022/11/19 02:52:22;;;;;;;5.03;4.03;;;;;;;;;;5065014;28;20044;-58
2022/11/19 02:54:48;;;;;;;4.68;4.28;;;;;;;;;;5062703;28;20048;-58
2022/11/19 02:57:14;;;;;;;4.90;3.63;;;;;;;;;;5065338;28;20032;-58
2022/11/19 03:05:44;;;;;;;5.55;3.78;;;;;;;;;;5063463;28;20052;-58
2022/11/19 03:08:10;;;;;;;4.35;3.60;;;;;;;;;;5064304;28;20121;-58
2022/11/19 03:10:48;;;;;;;3.92;3.22;;;;;;;;;;5064251;28;20839;-58
2022/11/19 03:18:54;;;;;;;4.70;3.80;;;;;;;;;;5063318;28;20048;-57
2022/11/19 03:21:28;;;;;;;5.00;4.43;;;;;;;;;;5065187;28;20044;-57
2022/11/19 03:23:57;;;;;;;4.82;3.97;;;;;;;;;;5063901;28;20056;-58
2022/11/19 03:26:26;;;;;;;4.78;4.28;;;;;;;;;;5064521;28;20048;-58
2022/11/19 03:28:54;;;;;;;4.28;3.83;;;;;;;;;;5063676;28;20055;-57
2022/11/19 03:31:22;;;;;;;4.10;3.70;;;;;;;;;;5065051;28;20122;-57
2022/11/19 03:33:51;;;;;;;4.47;3.22;;;;;;;;;;5065154;28;20059;-58
2022/11/19 03:36:19;;;;;;;4.65;4.03;;;;;;;;;;5063421;28;20044;-58
2022/11/19 03:38:56;;;;;;;5.10;4.40;;;;;;;;;;5064285;28;20052;-58
2022/11/19 03:41:24;;;;;;;5.63;3.72;;;;;;;;;;5064588;28;20144;-58
2022/11/19 03:43:55;;;;;;;6.10;4.40;;;;;;;;;;5064315;28;20036;-58
2022/11/19 03:46:21;;;;;;;5.85;4.15;;;;;;;;;;5063375;28;20041;-57
2022/11/19 03:48:49;;;;;;;6.00;4.47;;;;;;;;;;5064822;28;20041;-58
2022/11/19 03:51:18;;;;;;;5.45;4.60;;;;;;;;;;5063876;28;20033;-57
2022/11/19 03:53:44;;;;;;;4.47;4.07;;;;;;;;;;5064377;28;20086;-58
2022/11/19 03:56:11;;;;;;;5.40;3.85;;;;;;;;;;5064681;28;20049;-57
2022/11/19 03:58:42;;;;;;;5.57;3.60;;;;;;;;;;5063500;28;20042;-58
2022/11/19 04:01:08;;;;;;;4.82;3.83;;;;;;;;;;5064992;28;20044;-57
2022/11/19 04:03:34;;;;;;;5.25;4.20;;;;;;;;;;5061330;28;20048;-58
2022/11/19 04:06:00;;;;;;;4.20;3.55;;;;;;;;;;5063608;28;20376;-57
2022/11/19 04:08:26;;;;;;;4.07;3.53;;;;;;;;;;5064070;28;20098;-58
2022/11/19 04:10:52;;;;;;;4.60;4.18;;;;;;;;;;5063516;28;20088;-57
2022/11/19 04:13:18;;;;;;;6.00;3.55;;;;;;;;;;5062819;28;20051;-57
2022/11/19 04:15:44;;;;;;;4.88;4.07;;;;;;;;;;5064383;28;20048;-58
2022/11/19 04:18:10;;;;;;;4.57;3.80;;;;;;;;;;5063120;28;20040;-58
2022/11/19 04:20:36;;;;;;;4.68;4.07;;;;;;;;;;5063733;28;20041;-59
2022/11/19 04:23:02;;;;;;;4.15;3.75;;;;;;;;;;5063643;28;20040;-58
2022/11/19 04:25:28;;;;;;;5.28;3.92;;;;;;;;;;5062699;28;20060;-58
2022/11/19 04:27:54;;;;;;;5.03;4.53;;;;;;;;;;5063916;28;20426;-58
2022/11/19 04:30:20;;;;;;;4.68;3.67;;;;;;;;;;5064679;28;20663;-58
2022/11/19 04:32:46;;;;;;;5.90;4.50;;;;;;;;;;5064650;28;20047;-58
2022/11/19 04:35:13;;;;;;;4.57;4.03;;;;;;;;;;5065050;28;20049;-58
2022/11/19 04:37:39;;;;;;;6.53;4.72;;;;;;;;;;5064832;28;20040;-58
2022/11/19 04:40:05;;;;;;;6.07;5.07;;;;;;;;;;5098570;28;20093;-58
2022/11/19 04:42:31;;;;;;;5.65;4.40;;;;;;;;;;5068162;28;20452;-58
2022/11/19 04:44:57;;;;;;;5.68;4.38;;;;;;;;;;5068332;28;20053;-58
2022/11/19 04:47:23;;;;;;;5.15;4.30;;;;;;;;;;5067498;28;20570;-58
2022/11/19 04:49:49;;;;;;;4.32;3.85;;;;;;;;;;5067100;28;20128;-58
2022/11/19 04:52:15;;;;;;;4.35;3.88;;;;;;;;;;5068474;28;20068;-58
2022/11/19 04:54:41;;;;;;;5.10;4.15;;;;;;;;;;5067336;28;20083;-58
2022/11/19 04:57:07;;;;;;;5.00;4.28;;;;;;;;;;5068718;28;20189;-58
2022/11/19 04:59:33;;;;;;;5.55;4.00;;;;;;;;;;5068184;28;20036;-58
2022/11/19 05:01:59;;;;;;;4.30;3.90;;;;;;;;;;5067126;28;20052;-58
2022/11/19 05:04:25;;;;;;;6.10;3.67;;;;;;;;;;5068320;28;20040;-58
2022/11/19 05:06:51;;;;;;;4.72;3.67;;;;;;;;;;5067840;28;20036;-58
2022/11/19 05:09:17;;;;;;;4.10;3.70;;;;;;;;;;5067521;28;20418;-58
2022/11/19 05:11:43;;;;;;;4.60;3.80;;;;;;;;;;5068113;28;20044;-58
2022/11/19 05:14:09;;;;;;;4.85;3.60;;;;;;;;;;5067082;28;20063;-58
2022/11/19 05:16:35;;;;;;;5.30;4.03;;;;;;;;;;5067968;28;20032;-57
2022/11/19 05:19:01;;;;;;;4.15;3.70;;;;;;;;;;5067813;28;20119;-58
2022/11/19 05:21:27;;;;;;;5.18;4.20;;;;;;;;;;5066960;28;20391;-58
2022/11/19 05:23:53;;;;;;;5.63;4.25;;;;;;;;;;5067402;28;20036;-58
2022/11/19 05:26:19;;;;;;;5.38;4.53;;;;;;;;;;5068152;28;20036;-58
2022/11/19 05:28:45;;;;;;;5.22;4.53;;;;;;;;;;5067129;28;20433;-58
2022/11/19 05:31:11;;;;;;;5.13;4.40;;;;;;;;;;5067826;28;20064;-58
2022/11/19 05:33:37;;;;;;;6.10;4.00;;;;;;;;;;5067217;28;20055;-58
2022/11/19 05:36:03;;;;;;;5.20;4.60;;;;;;;;;;5065646;28;20044;-58
2022/11/19 05:38:29;;;;;;;5.22;4.40;;;;;;;;;;5067471;28;20127;-58
2022/11/19 05:40:55;;;;;;;5.28;4.65;;;;;;;;;;5067232;28;20132;-58
2022/11/19 05:43:21;;;;;;;5.50;4.18;;;;;;;;;;5068126;28;20049;-57
2022/11/19 05:45:47;;;;;;;5.88;4.22;;;;;;;;;;5067390;28;20063;-57
2022/11/19 05:48:13;;;;;;;4.40;4.00;;;;;;;;;;5066887;28;20032;-58
2022/11/19 05:50:41;;;;;;;5.22;3.72;;;;;;;;;;5065581;28;20123;-58
2022/11/19 05:53:07;;;;;;;5.30;4.30;;;;;;;;;;5067245;28;20052;-57
2022/11/19 05:55:33;;;;;;;5.03;4.40;;;;;;;;;;5066934;28;20481;-58
2022/11/19 05:57:59;;;;;;;5.13;3.83;;;;;;;;;;5066967;28;20045;-58
2022/11/19 06:00:25;;;;;;;4.80;3.70;;;;;;;;;;5071783;28;20037;-58
2022/11/19 06:02:51;;;;;;;5.28;4.13;;;;;;;;;;5066685;28;20043;-58
2022/11/19 06:05:17;;;;;;;4.30;3.70;;;;;;;;;;5066787;28;20067;-58
2022/11/19 06:07:43;;;;;;;5.13;4.28;;;;;;;;;;5066714;28;20071;-58
2022/11/19 06:10:09;;;;;;;5.95;4.13;;;;;;;;;;5066708;28;20057;-58
2022/11/19 06:12:35;;;;;;;6.97;4.63;;;;;;;;;;5065970;28;20067;-58
2022/11/19 06:15:01;;;;;;;5.60;5.00;;;;;;;;;;5066564;28;20044;-58
2022/11/19 06:17:28;;;;;;;4.93;4.35;;;;;;;;;;5065347;28;20433;-58
2022/11/19 06:19:54;;;;;;;5.47;4.43;;;;;;;;;;5066200;28;20071;-58
2022/11/19 06:22:20;;;;;;;6.20;4.78;;;;;;;;;;5067130;28;20036;-58
2022/11/19 06:24:46;;;;;;;4.68;4.15;;;;;;;;;;5065133;28;20056;-58
2022/11/19 06:27:12;;;;;;;5.22;4.20;;;;;;;;;;5066714;28;20079;-57
2022/11/19 06:29:38;;;;;;;5.47;4.60;;;;;;;;;;5066195;28;20041;-58
2022/11/19 06:32:04;;;;;;;5.88;4.53;;;;;;;;;;5063823;28;20464;-57
2022/11/19 06:34:30;;;;;;;4.97;4.38;;;;;;;;;;5065978;28;20049;-58
2022/11/19 06:36:57;;;;;;;6.13;4.28;;;;;;;;;;5066412;28;20813;-57
2022/11/19 06:39:23;;;;;;;5.07;3.97;;;;;;;;;;5065436;28;20048;-57
2022/11/19 06:41:49;;;;;;;5.65;4.03;;;;;;;;;;5066608;28;20051;-57
2022/11/19 06:44:15;;;;;;;6.10;4.38;;;;;;;;;;5066424;28;20040;-58
2022/11/19 06:46:41;;;;;;;5.30;4.00;;;;;;;;;;5065386;28;20506;-58
2022/11/19 06:49:08;;;;;;;5.00;4.07;;;;;;;;;;5066337;28;20105;-58
2022/11/19 06:51:34;;;;;;;5.35;4.15;;;;;;;;;;5065836;28;20054;-58
2022/11/19 06:54:00;;;;;;;5.03;4.50;;;;;;;;;;5065385;28;20048;-58
2022/11/19 06:56:26;;;;;;;6.55;4.45;;;;;;;;;;5065884;28;20037;-58
2022/11/19 06:58:55;;;;;;;5.03;4.53;;;;;;;;;;5065829;28;20067;-57
2022/11/19 07:01:21;;;;;;;4.95;4.07;;;;;;;;;;5064023;28;20493;-58
2022/11/19 07:03:47;;;;;;;4.93;4.35;;;;;;;;;;5065153;28;20061;-57
2022/11/19 07:06:13;;;;;;;4.70;3.72;;;;;;;;;;5071043;28;20055;-58
2022/11/19 07:08:39;;;;;;;4.30;3.78;;;;;;;;;;5074280;28;20104;-58
2022/11/19 07:13:57;;;;;;;3.60;3.30;;;;;;;;;;5065651;28;20131;-58
2022/11/19 07:16:27;;;;;;;3.78;3.40;;;;;;;;;;5065232;28;20044;-57
2022/11/19 07:18:53;;;;;;;4.80;3.55;;;;;;;;;;5064452;28;20048;-58
2022/11/19 07:21:19;;;;;;;4.30;3.63;;;;;;;;;;5063340;28;20087;-58
2022/11/19 07:23:45;;;;;;;3.42;3.13;;;;;;;;;;5065329;28;20048;-58
2022/11/19 07:26:11;;;;;;;4.43;3.75;;;;;;;;;;5065838;28;20098;-57
2022/11/19 07:28:37;;;;;;;4.97;4.13;;;;;;;;;;5064750;28;20036;-57
2022/11/19 07:31:06;;;;;;;5.95;5.10;;;;;;;;;;5065867;28;20036;-58
2022/11/19 07:33:32;;;;;;;6.93;4.03;;;;;;;;;;5065408;28;21036;-58
2022/11/19 07:35:58;;;;;;;6.43;4.60;;;;;;;;;;5064672;28;20733;-58
2022/11/19 07:38:24;;;;;;;5.13;4.32;;;;;;;;;;5065569;28;20127;-58
2022/11/19 07:40:54;;;;;;;4.95;4.32;;;;;;;;;;5065759;28;20410;-58
2022/11/19 07:43:20;;;;;;;5.18;4.05;;;;;;;;;;5065081;28;20048;-58
2022/11/19 07:45:46;;;;;;;4.82;4.28;;;;;;;;;;5065678;28;20037;-58
2022/11/19 07:48:12;;;;;;;4.38;3.95;;;;;;;;;;5070700;28;20102;-58
2022/11/19 07:50:39;;;;;;;6.78;4.93;;;;;;;;;;5066065;28;20087;-58
2022/11/19 07:53:05;;;;;;;5.05;4.32;;;;;;;;;;5064794;28;20045;-58
2022/11/19 07:55:31;;;;;;;6.80;4.10;;;;;;;;;;5065059;28;20102;-58
2022/11/19 07:57:57;;;;;;;5.25;4.20;;;;;;;;;;5064309;28;20044;-57
2022/11/19 08:00:23;;;;;;;5.18;4.40;;;;;;;;;;5064968;28;20047;-58
2022/11/19 08:02:49;;;;;;;5.38;4.60;;;;;;;;;;5066178;28;20434;-58
2022/11/19 08:05:16;;;;;;;5.72;4.05;;;;;;;;;;5065006;28;20041;-58
2022/11/19 08:07:42;;;;;;;5.65;4.63;;;;;;;;;;5065506;28;20090;-57
2022/11/19 08:10:09;;;;;;;5.00;4.50;;;;;;;;;;5067794;28;20047;-58
2022/11/19 08:12:35;;;;;;;5.72;4.88;;;;;;;;;;5067812;28;20204;-58
2022/11/19 08:15:01;;;;;;;5.60;4.20;;;;;;;;;;5068938;28;20090;-58
2022/11/19 08:20:12;;;;;;;5.55;4.45;;;;;;;;;;5068078;28;20045;-58
2022/11/19 08:22:40;;;;;;;5.03;4.35;;;;;;;;;;5069525;28;20105;-58
2022/11/19 08:25:06;;;;;;;7.47;5.13;;;;;;;;;;5068256;28;20101;-58
2022/11/19 08:27:32;;;;;;;5.70;4.75;;;;;;;;;;5068252;28;20605;-58
2022/11/19 08:29:58;;;;;;;5.38;4.40;;;;;;;;;;5066678;28;20048;-58
2022/11/19 08:32:24;;;;;;;4.82;4.32;;;;;;;;;;5072842;28;20067;-58
2022/11/19 08:34:50;;;;;;;7.43;4.90;;;;;;;;;;5068275;28;20167;-58
2022/11/19 08:37:16;;;;;;;4.80;4.10;;;;;;;;;;5068704;28;20502;-58
2022/11/19 08:39:42;;;;;;;5.60;4.13;;;;;;;;;;5067567;28;20045;-58
2022/11/19 08:44:54;;;;;;;5.43;4.68;;;;;;;;;;5067709;28;20785;-58
2022/11/19 08:47:20;;;;;;;6.15;4.50;;;;;;;;;;5067772;28;20040;-58
2022/11/19 08:49:46;;;;;;;4.93;4.32;;;;;;;;;;5068333;28;20040;-58
2022/11/19 08:52:13;;;;;;;5.28;4.78;;;;;;;;;;5067305;28;20106;-58
2022/11/19 08:54:39;;;;;;;6.55;5.38;;;;;;;;;;5067809;28;20131;-58
2022/11/19 08:57:05;;;;;;;6.78;4.70;;;;;;;;;;5067632;28;20167;-58
2022/11/19 08:59:31;;;;;;;5.05;4.55;;;;;;;;;;5067146;28;20098;-58
2022/11/19 09:01:57;;;;;;;5.43;4.13;;;;;;;;;;5068309;28;20041;-58
2022/11/19 09:04:23;;;;;;;6.50;4.97;;;;;;;;;;5067718;28;20437;-58
2022/11/19 09:06:49;;;;;;;7.03;5.20;;;;;;;;;;5066908;28;20116;-58
2022/11/19 09:09:15;;;;;;;5.95;4.60;;;;;;;;;;5067709;28;20056;-58
2022/11/19 09:11:41;;;;;;;4.57;4.18;;;;;;;;;;5067944;28;20044;-58
2022/11/19 09:14:07;;;;;;;5.18;4.30;;;;;;;;;;5066124;28;20067;-58
2022/11/19 09:16:33;;;;;;;6.53;4.97;;;;;;;;;;5073329;28;20122;-58
2022/11/19 09:19:01;;;;;;;5.90;4.88;;;;;;;;;;5069447;28;20275;-59
2022/11/19 09:21:27;;;;;;;5.05;4.35;;;;;;;;;;5067190;28;20052;-59
2022/11/19 09:23:53;;;;;;;6.35;5.00;;;;;;;;;;5067622;28;20434;-58
2022/11/19 09:26:19;;;;;;;4.70;4.30;;;;;;;;;;5067247;28;20043;-59
2022/11/19 09:28:45;;;;;;;5.82;4.43;;;;;;;;;;5066695;28;20044;-59
2022/11/19 09:31:13;;;;;;;4.72;4.22;;;;;;;;;;5067853;28;20776;-59
2022/11/19 09:33:41;;;;;;;4.95;4.43;;;;;;;;;;5069447;28;20048;-59
2022/11/19 09:36:07;;;;;;;4.72;4.20;;;;;;;;;;5075324;28;20040;-59
2022/11/19 09:38:34;;;;;;;5.00;4.50;;;;;;;;;;5068218;28;20048;-59
2022/11/19 09:41:11;;;;;;;5.70;4.90;;;;;;;;;;5068774;28;20059;-59
2022/11/19 09:43:46;;;;;;;5.53;4.72;;;;;;;;;;5063682;28;20033;-58
2022/11/19 09:46:15;;;;;;;6.55;4.78;;;;;;;;;;5065699;28;20040;-59
2022/11/19 09:48:41;;;;;;;7.28;5.07;;;;;;;;;;5062032;28;20040;-59
2022/11/19 09:51:15;;;;;;;4.90;4.40;;;;;;;;;;5066482;28;20086;-59
2022/11/19 09:53:43;;;;;;;5.35;4.82;;;;;;;;;;5065882;28;20053;-59
2022/11/19 09:56:12;;;;;;;6.32;4.78;;;;;;;;;;5068968;28;20127;-58
2022/11/19 09:58:41;;;;;;;7.32;5.07;;;;;;;;;;5069599;28;20071;-59
2022/11/19 10:01:11;;;;;;;6.05;4.88;;;;;;;;;;5068940;28;20511;-59
2022/11/19 10:03:40;;;;;;;5.13;4.40;;;;;;;;;;5068969;28;20474;-59
2022/11/19 10:06:15;;;;;;;6.35;5.18;;;;;;;;;;5064976;28;20043;-59
2022/11/19 10:08:56;;;;;;;6.05;4.50;;;;;;;;;;5079124;28;20052;-58
2022/11/19 10:11:34;;;;;;;5.18;4.40;;;;;;;;;;5066498;28;20048;-59
2022/11/19 10:14:25;;;;;;;4.30;3.85;;;;;;;;;;5066376;28;20482;-57
2022/11/19 10:16:51;;;;;;;5.35;4.45;;;;;;;;;;5096780;28;20049;-57
2022/11/19 10:19:26;;;;;;;5.72;4.85;;;;;;;;;;5066106;28;20043;-55
2022/11/19 10:22:01;;;;;;;5.53;4.38;;;;;;;;;;5066645;28;20487;-60
2022/11/19 10:24:33;;;;;;;4.85;4.35;;;;;;;;;;5067783;28;20036;-60
2022/11/19 10:27:01;;;;;;;5.53;4.75;;;;;;;;;;5067700;28;20048;-61
2022/11/19 10:29:33;;;;;;;5.75;4.30;;;;;;;;;;5071520;28;20108;-60
2022/11/19 10:32:17;;;;;;;4.88;4.30;;;;;;;;;;5064986;28;20067;-60
2022/11/19 10:34:44;;;;;;;4.43;3.67;;;;;;;;;;5064748;28;20048;-60
2022/11/19 10:37:13;;;;;;;5.05;4.20;;;;;;;;;;5067576;28;20366;-59
2022/11/19 10:39:46;;;;;;;6.10;4.80;;;;;;;;;;5076249;28;20056;-59
2022/11/19 10:42:19;;;;;;;3.95;3.55;;;;;;;;;;5068043;28;20391;-59
2022/11/19 10:44:52;;;;;;;6.70;4.25;;;;;;;;;;5066524;28;20036;-59
2022/11/19 10:47:23;;;;;;;5.53;3.72;;;;;;;;;;5078750;28;20043;-58
2022/11/19 10:49:53;;;;;;;4.88;3.17;;;;;;;;;;5067746;28;20047;-58
2022/11/19 10:52:22;;;;;;;4.28;3.88;;;;;;;;;;5065188;28;20127;-59
2022/11/19 10:54:50;;;;;;;4.78;3.92;;;;;;;;;;5063162;28;20486;-58
2022/11/19 10:57:17;;;;;;;4.70;4.13;;;;;;;;;;5068684;28;20052;-59
2022/11/19 10:59:43;;;;;;;4.15;3.75;;;;;;;;;;5063348;28;20380;-59
2022/11/19 11:02:19;;;;;;;4.32;3.58;;;;;;;;;;5065189;28;20052;-58
2022/11/19 11:05:00;;;;;;;3.83;3.47;;;;;;;;;;5066283;28;20075;-59
2022/11/19 11:07:44;;;;;;;4.00;3.60;;;;;;;;;;5065425;28;20044;-59
2022/11/19 11:10:24;;;;;;;3.67;3.38;;;;;;;;;;5066070;28;20139;-59
2022/11/19 11:15:35;;;;;;;3.50;3.20;;;;;;;;;;5066134;28;20479;-59
2022/11/19 11:18:03;;;;;;;4.65;3.83;;;;;;;;;;5066589;28;20115;-59
2022/11/19 11:20:30;;;;;;;3.72;3.33;;;;;;;;;;5064986;28;20052;-59
2022/11/19 11:23:08;;;;;;;4.70;3.47;;;;;;;;;;5064683;28;20047;-59
2022/11/19 11:25:34;;;;;;;3.63;3.00;;;;;;;;;;5064927;28;20078;-60
2022/11/19 11:28:03;;;;;;;3.85;3.28;;;;;;;;;;5064456;28;20056;-59
2022/11/19 11:30:30;;;;;;;4.00;3.60;;;;;;;;;;5064887;28;20048;-59
2022/11/19 11:32:56;;;;;;;5.13;3.83;;;;;;;;;;5064855;28;20054;-59
2022/11/19 11:35:30;;;;;;;4.03;3.42;;;;;;;;;;5064670;28;20048;-59
2022/11/19 11:37:56;;;;;;;4.60;3.10;;;;;;;;;;5066356;28;20037;-60
2022/11/19 11:40:23;;;;;;;3.47;3.17;;;;;;;;;;5065984;28;20040;-59
2022/11/19 11:42:50;;;;;;;4.30;3.22;;;;;;;;;;5066091;28;20044;-59
2022/11/19 11:45:21;;;;;;;3.47;2.97;;;;;;;;;;5066447;28;20041;-59
2022/11/19 11:47:47;;;;;;;3.00;2.70;;;;;;;;;;5067087;28;20049;-60
2022/11/19 11:50:27;;;;;;;4.35;2.95;;;;;;;;;;5070019;28;20040;-59
2022/11/19 11:52:54;;;;;;;4.05;3.40;;;;;;;;;;5069762;28;20513;-59
2022/11/19 11:55:23;;;;;;;4.45;3.20;;;;;;;;;;5069659;28;20055;-59
2022/11/19 11:57:53;;;;;;;4.03;3.63;;;;;;;;;;5070871;28;20044;-59
2022/11/19 12:00:28;;;;;;;3.53;3.22;;;;;;;;;;5070337;28;20044;-59
2022/11/19 12:03:05;;;;;;;2.95;2.65;;;;;;;;;;5069305;28;20511;-59
2022/11/19 12:05:43;;;;;;;4.50;3.40;;;;;;;;;;5072835;28;20172;-60
2022/11/19 12:08:17;;;;;;;2.97;2.67;;;;;;;;;;5070179;28;20406;-59
2022/11/19 12:10:51;;;;;;;3.80;3.40;;;;;;;;;;5067797;28;20060;-59
2022/11/19 12:13:29;;;;;;;3.60;3.08;;;;;;;;;;5069551;28;20052;-59
2022/11/19 12:16:14;;;;;;;3.70;3.13;;;;;;;;;;5070838;28;20059;-60
2022/11/19 12:18:43;;;;;;;3.95;3.45;;;;;;;;;;5085027;28;20053;-59
2022/11/19 12:21:23;;;;;;;3.92;3.53;;;;;;;;;;5069403;28;20036;-59
2022/11/19 12:23:49;;;;;;;3.65;3.35;;;;;;;;;;5072220;28;20132;-59
2022/11/19 12:26:27;;;;;;;4.85;3.15;;;;;;;;;;5072007;28;20040;-59
2022/11/19 12:28:59;;;;;;;3.85;3.10;;;;;;;;;;5072353;28;20479;-59
2022/11/19 12:31:25;;;;;;;4.53;3.20;;;;;;;;;;5072324;28;20601;-60
2022/11/19 12:34:10;;;;;;;3.05;2.75;;;;;;;;;;5068128;28;20044;-60
2022/11/19 12:36:45;;;;;;;3.22;2.80;;;;;;;;;;5059164;28;20045;-59
2022/11/19 12:39:30;;;;;;;6.05;2.90;;;;;;;;;;5064770;28;20048;-59
2022/11/19 12:42:11;;;;;;;2.97;2.40;;;;;;;;;;5069825;28;20045;-60
2022/11/19 12:44:53;;;;;;;3.28;2.40;;;;;;;;;;5074006;28;20064;-60
2022/11/19 12:47:27;;;;;;;3.72;3.33;;;;;;;;;;5069215;28;20199;-59
2022/11/19 12:50:04;;;;;;;3.50;2.95;;;;;;;;;;5066887;28;20036;-59
2022/11/19 12:52:30;;;;;;;3.92;3.20;;;;;;;;;;5065831;28;20040;-59
2022/11/19 12:55:08;;;;;;;4.38;2.70;;;;;;;;;;5066785;28;20404;-59
2022/11/19 12:57:40;;;;;;;4.25;3.03;;;;;;;;;;5070777;28;20669;-60
2022/11/19 13:00:11;;;;;;;5.25;3.15;;;;;;;;;;5069678;28;20049;-60
2022/11/19 13:02:37;;;;;;;3.43;3.10;;;;;;;;;;5085009;28;20044;-60
2022/11/19 13:05:06;;;;;;;3.75;3.35;;;;;;;;;;5069101;28;20044;-59
2022/11/19 13:07:39;;;;;;;4.22;2.60;;;;;;;;;;5077527;28;20064;-58
2022/11/19 13:10:07;;;;;;;3.40;3.10;;;;;;;;;;5066877;28;20139;-60
2022/11/19 13:12:37;;;;;;;3.80;2.97;;;;;;;;;;5066714;28;20803;-59
2022/11/19 13:15:08;;;;;;;3.17;2.80;;;;;;;;;;5074674;28;20135;-59
2022/11/19 13:17:39;;;;;;;3.23;2.90;;;;;;;;;;5066935;28;20090;-59
2022/11/19 13:20:11;;;;;;;3.08;2.75;;;;;;;;;;5066463;28;20044;-59
2022/11/19 13:22:39;;;;;;;3.50;3.20;;;;;;;;;;5067810;28;20041;-59
2022/11/19 13:25:24;;;;;;;3.80;2.60;;;;;;;;;;5069927;28;20106;-59
2022/11/19 13:27:50;;;;;;;3.40;2.72;;;;;;;;;;5060078;28;20055;-59
2022/11/19 13:30:18;;;;;;;3.45;3.15;;;;;;;;;;5075855;28;20069;-59
2022/11/19 13:32:50;;;;;;;3.30;2.65;;;;;;;;;;5073884;28;20544;-59
2022/11/19 13:35:19;;;;;;;3.33;2.75;;;;;;;;;;5068308;28;20509;-59
2022/11/19 13:37:45;;;;;;;2.78;2.53;;;;;;;;;;5063421;28;20048;-59
2022/11/19 13:40:34;;;;;;;2.30;2.10;;;;;;;;;;5065859;28;20040;-59
2022/11/19 13:45:50;;;;;;;2.92;2.67;;;;;;;;;;5066640;28;20136;-59
2022/11/19 13:48:26;;;;;;;2.50;2.30;;;;;;;;;;5063137;28;20040;-59
2022/11/19 13:50:54;;;;;;;2.60;2.40;;;;;;;;;;5065851;28;20054;-59
2022/11/19 13:53:26;;;;;;;3.20;2.70;;;;;;;;;;5065940;28;20045;-59
2022/11/19 13:55:56;;;;;;;3.40;2.85;;;;;;;;;;5065313;28;20036;-59
2022/11/19 13:58:43;;;;;;;2.78;2.58;;;;;;;;;;5064652;28;20608;-59
2022/11/19 14:01:21;;;;;;;2.85;2.55;;;;;;;;;;5062182;28;20054;-59
2022/11/19 14:03:47;;;;;;;2.65;2.45;;;;;;;;;;5094273;28;20041;-59
2022/11/19 14:06:32;;;;;;;2.80;2.60;;;;;;;;;;5062279;28;20452;-59
2022/11/19 14:08:58;;;;;;;3.25;2.47;;;;;;;;;;5064185;28;20056;-60
2022/11/19 14:11:42;;;;;;;3.90;2.97;;;;;;;;;;5064686;28;20052;-59
2022/11/19 14:26:18;;;;;;;3.17;2.13;;;;;;;;;;5080807;28;20048;-59
2022/11/19 14:28:46;;;;;;;3.08;2.78;;;;;;;;;;5058172;28;20079;-59
2022/11/19 14:31:12;;;;;;;3.88;2.92;;;;;;;;;;5074864;28;20044;-59
2022/11/19 14:33:47;;;;;;;2.75;2.55;;;;;;;;;;5068865;28;20395;-59
2022/11/19 14:36:19;;;;;;;3.50;3.20;;;;;;;;;;5066840;28;20068;-59
2022/11/19 14:38:52;;;;;;;3.47;3.17;;;;;;;;;;5072415;28;20472;-59
2022/11/19 14:41:22;;;;;;;4.15;3.20;;;;;;;;;;5071376;28;20033;-58
2022/11/19 14:44:08;;;;;;;3.65;3.00;;;;;;;;;;5068537;28;20041;-59
2022/11/19 14:46:34;;;;;;;2.40;2.20;;;;;;;;;;5070093;28;20512;-59
2022/11/19 14:49:02;;;;;;;3.00;2.30;;;;;;;;;;5072961;28;20811;-58
2022/11/19 14:51:30;;;;;;;2.90;2.30;;;;;;;;;;5067804;28;20044;-59
2022/11/19 14:54:00;;;;;;;2.30;2.10;;;;;;;;;;5065204;28;20132;-59
2022/11/19 14:56:26;;;;;;;2.30;2.10;;;;;;;;;;5063757;28;20037;-59
2022/11/19 14:58:59;;;;;;;2.05;1.85;;;;;;;;;;5099723;27;20048;-60
2022/11/19 15:01:25;;;;;;;2.60;2.28;;;;;;;;;;5070234;28;20044;-60
2022/11/19 15:03:54;;;;;;;2.22;2.00;;;;;;;;;;5066078;28;20051;-60
2022/11/19 15:06:20;;;;;;;2.15;1.90;;;;;;;;;;5076202;28;20064;-59
2022/11/19 15:08:46;;;;;;;1.85;1.60;;;;;;;;;;5072401;28;20380;-60
2022/11/19 15:11:13;;;;;;;1.40;1.30;;;;;;;;;;5076399;28;20044;-60
2022/11/19 15:13:43;;;;;;;2.65;1.90;;;;;;;;;;5071433;28;20036;-59
2022/11/19 15:16:25;;;;;;;1.60;1.50;;;;;;;;;;5075157;28;20052;-59
2022/11/19 15:19:14;;;;;;;1.98;1.70;;;;;;;;;;5063491;28;20063;-60
2022/11/19 15:21:52;;;;;;;1.88;1.70;;;;;;;;;;5062046;28;20566;-59
2022/11/19 15:24:30;;;;;;;2.10;1.90;;;;;;;;;;5062685;28;20045;-59
2022/11/19 15:27:16;;;;;;;2.28;2.08;;;;;;;;;;5065401;28;20043;-59
2022/11/19 15:30:00;;;;;;;1.73;1.63;;;;;;;;;;5066439;28;20483;-60
2022/11/19 15:32:26;;;;;;;2.15;1.95;;;;;;;;;;5073753;28;20041;-60
2022/11/19 15:35:04;;;;;;;3.10;2.30;;;;;;;;;;5064582;28;20485;-60